Schneifelwetter: Wetterstation Hallschlag, 537 m . NN
Wetterdaten: Mittwoch, 07.11.2012
Datum Zeit Temp. A. Feuchte A. Luftdruck Regen Wind Richtung Richtung Sonnenschein T Regen Taupunkt Windchill
07.11.2012 00:09 2,7 C 94 % 1018 hPa 0,0 l/m 36,2 km/h (5 Bft) W-SW45 250 0 min 0 min 1,8 C -11,2 C
07.11.2012 00:24 2,7 C 95 % 1018 hPa 0,3 l/m 32,3 km/h (5 Bft) W-SW45 255 0 min 15 min 2,0 C -10,2 C
07.11.2012 00:39 2,7 C 95 % 1018 hPa 0,0 l/m 30,7 km/h (5 Bft) W-SW67.5 255 0 min 0 min 2,0 C -9,8 C
07.11.2012 00:54 2,8 C 95 % 1018 hPa 0,0 l/m 26,9 km/h (4 Bft) W-SW45 255 0 min 0 min 2,1 C -8,5 C
07.11.2012 01:09 2,8 C 96 % 1018 hPa 0,3 l/m 33,1 km/h (5 Bft) W-SW22.5 255 0 min 15 min 2,2 C -10,3 C
07.11.2012 01:24 2,9 C 96 % 1018 hPa 0,0 l/m 27,8 km/h (4 Bft) W22.5 260 0 min 0 min 2,3 C -8,7 C
07.11.2012 01:39 2,9 C 96 % 1018 hPa 0,3 l/m 22,3 km/h (4 Bft) W-SW22.5 245 0 min 15 min 2,3 C -6,8 C
07.11.2012 01:54 3,0 C 96 % 1018 hPa 0,0 l/m 26,3 km/h (4 Bft) W22.5 260 0 min 0 min 2,4 C -8,1 C
07.11.2012 02:09 3,1 C 97 % 1018 hPa 0,3 l/m 26,1 km/h (4 Bft) W-SW22.5 250 0 min 15 min 2,7 C -7,9 C
07.11.2012 02:24 3,1 C 97 % 1018 hPa 0,0 l/m 21,1 km/h (4 Bft) W45 260 0 min 0 min 2,7 C -6,1 C
07.11.2012 02:39 3,3 C 97 % 1018 hPa 0,0 l/m 25,3 km/h (4 Bft) W22.5 260 0 min 0 min 2,9 C -7,3 C
07.11.2012 02:54 3,4 C 97 % 1018 hPa 0,3 l/m 19,3 km/h (3 Bft) W-SW45 255 0 min 15 min 3,0 C -4,9 C
07.11.2012 03:09 3,5 C 97 % 1018 hPa 0,0 l/m 20,8 km/h (4 Bft) W-SW45 255 0 min 0 min 3,1 C -5,4 C
07.11.2012 03:24 3,6 C 97 % 1018 hPa 0,3 l/m 22,4 km/h (4 Bft) W-SW22.5 250 0 min 15 min 3,2 C -5,9 C
07.11.2012 03:39 3,7 C 97 % 1018 hPa 0,0 l/m 21,4 km/h (4 Bft) W-SW22.5 255 0 min 0 min 3,3 C -5,4 C
07.11.2012 03:54 3,9 C 97 % 1018 hPa 0,0 l/m 22,0 km/h (4 Bft) W-SW22.5 250 0 min 0 min 3,5 C -5,4 C
07.11.2012 04:09 4,0 C 97 % 1018 hPa 0,0 l/m 30,5 km/h (5 Bft) W45 265 0 min 0 min 3,6 C -7,9 C
07.11.2012 04:24 4,1 C 97 % 1019 hPa 0,0 l/m 22,8 km/h (4 Bft) W-SW22.5 255 0 min 0 min 3,7 C -5,4 C
07.11.2012 04:39 4,2 C 97 % 1019 hPa 0,0 l/m 27,8 km/h (4 Bft) W-SW45 255 0 min 0 min 3,8 C -6,9 C
07.11.2012 04:54 4,2 C 98 % 1019 hPa 0,0 l/m 27,9 km/h (4 Bft) W-SW22.5 250 0 min 0 min 3,9 C -6,9 C
07.11.2012 05:09 4,3 C 98 % 1019 hPa 0,0 l/m 21,7 km/h (4 Bft) W-SW22.5 255 0 min 0 min 4,0 C -4,7 C
07.11.2012 05:24 4,2 C 98 % 1019 hPa 0,0 l/m 18,8 km/h (3 Bft) W-SW45 250 0 min 0 min 3,9 C -3,7 C
07.11.2012 05:39 4,2 C 98 % 1019 hPa 0,3 l/m 19,2 km/h (3 Bft) W-SW22.5 250 0 min 15 min 3,9 C -3,9 C
07.11.2012 05:54 4,2 C 98 % 1020 hPa 0,0 l/m 21,7 km/h (4 Bft) W-SW22.5 255 0 min 0 min 3,9 C -4,9 C
07.11.2012 06:09 4,2 C 98 % 1020 hPa 0,0 l/m 20,1 km/h (4 Bft) W-SW22.5 255 0 min 0 min 3,9 C -4,2 C
07.11.2012 06:24 4,3 C 98 % 1020 hPa 0,0 l/m 21,3 km/h (4 Bft) W22.5 260 0 min 0 min 4,0 C -4,6 C
07.11.2012 06:39 4,3 C 98 % 1020 hPa 0,0 l/m 23,8 km/h (4 Bft) W-SW22.5 255 0 min 0 min 4,0 C -5,5 C
07.11.2012 06:54 4,3 C 98 % 1020 hPa 0,0 l/m 27,5 km/h (4 Bft) W-SW22.5 250 0 min 0 min 4,0 C -6,7 C
07.11.2012 07:09 4,4 C 98 % 1020 hPa 0,0 l/m 28,8 km/h (4 Bft) W-SW22.5 255 0 min 0 min 4,1 C -6,9 C
07.11.2012 07:24 4,5 C 98 % 1020 hPa 0,0 l/m 23,4 km/h (4 Bft) W-SW22.5 245 0 min 0 min 4,2 C -5,1 C
07.11.2012 07:39 4,6 C 98 % 1020 hPa 0,0 l/m 23,5 km/h (4 Bft) W-SW22.5 255 0 min 0 min 4,3 C -5,0 C
07.11.2012 08:00 4,7 C 98 % 1020 hPa 0,3 l/m 19,4 km/h (3 Bft) W-SW22.5 255 0 min 21 min 4,4 C -3,3 C
07.11.2012 08:15 4,8 C 98 % 1021 hPa 0,0 l/m 16,5 km/h (3 Bft) W-SW22.5 255 0 min 0 min 4,5 C -1,9 C
07.11.2012 08:30 4,8 C 98 % 1021 hPa 0,0 l/m 16,3 km/h (3 Bft) W-SW22.5 255 0 min 0 min 4,5 C -1,8 C
07.11.2012 08:45 5,2 C 98 % 1021 hPa 0,0 l/m 24,1 km/h (4 Bft) W-SW22.5 255 0 min 0 min 4,9 C -4,4 C
07.11.2012 09:01 5,3 C 98 % 1021 hPa 0,0 l/m 22,5 km/h (4 Bft) W-SW22.5 255 0 min 0 min 5,0 C -3,7 C
07.11.2012 09:15 5,5 C 99 % 1021 hPa 0,0 l/m 21,6 km/h (4 Bft) W22.5 260 0 min 0 min 5,4 C -3,1 C
07.11.2012 09:30 5,7 C 99 % 1022 hPa 0,0 l/m 21,4 km/h (4 Bft) W-SW22.5 255 0 min 0 min 5,6 C -2,8 C
07.11.2012 09:45 5,8 C 99 % 1022 hPa 0,0 l/m 24,3 km/h (4 Bft) W22.5 260 0 min 0 min 5,7 C -3,6 C
07.11.2012 10:00 6,0 C 99 % 1022 hPa 0,0 l/m 24,2 km/h (4 Bft) W-SW45 255 0 min 0 min 5,9 C -3,3 C
07.11.2012 10:15 6,1 C 99 % 1022 hPa 0,0 l/m 25,4 km/h (4 Bft) W22.5 260 0 min 0 min 6,0 C -3,6 C
07.11.2012 10:31 6,2 C 98 % 1022 hPa 0,0 l/m 25,2 km/h (4 Bft) W-SW45 255 0 min 0 min 5,9 C -3,4 C
07.11.2012 10:45 6,4 C 98 % 1022 hPa 0,0 l/m 23,9 km/h (4 Bft) W45 260 0 min 0 min 6,1 C -2,7 C
07.11.2012 11:00 6,4 C 98 % 1023 hPa 0,0 l/m 27,8 km/h (4 Bft) W-SW22.5 250 0 min 0 min 6,1 C -3,8 C
07.11.2012 11:15 6,6 C 98 % 1023 hPa 0,0 l/m 29,0 km/h (5 Bft) W45 260 0 min 0 min 6,3 C -3,9 C
07.11.2012 11:30 6,8 C 98 % 1023 hPa 0,0 l/m 22,0 km/h (4 Bft) W-SW22.5 255 0 min 0 min 6,5 C -1,6 C
07.11.2012 11:45 7,1 C 98 % 1023 hPa 0,0 l/m 22,4 km/h (4 Bft) W22.5 260 0 min 0 min 6,8 C -1,3 C
07.11.2012 12:01 7,2 C 98 % 1023 hPa 0,0 l/m 20,8 km/h (4 Bft) W-SW45 250 0 min 0 min 6,9 C -0,6 C
07.11.2012 12:15 7,2 C 98 % 1023 hPa 0,0 l/m 23,1 km/h (4 Bft) W-SW45 255 0 min 0 min 6,9 C -1,4 C
07.11.2012 12:30 7,1 C 97 % 1023 hPa 0,0 l/m 26,5 km/h (4 Bft) W-SW22.5 255 0 min 0 min 6,7 C -2,5 C
07.11.2012 12:45 7,0 C 97 % 1023 hPa 0,0 l/m 28,6 km/h (4 Bft) W-SW67.5 250 0 min 0 min 6,6 C -3,2 C
07.11.2012 13:00 7,1 C 97 % 1023 hPa 0,0 l/m 23,0 km/h (4 Bft) W45 260 0 min 0 min 6,7 C -1,5 C
07.11.2012 13:15 7,0 C 97 % 1023 hPa 0,0 l/m 26,8 km/h (4 Bft) W-SW22.5 255 0 min 0 min 6,6 C -2,7 C
07.11.2012 13:30 6,9 C 97 % 1023 hPa 0,0 l/m 26,5 km/h (4 Bft) W-SW22.5 255 0 min 0 min 6,5 C -2,8 C
07.11.2012 13:45 6,8 C 97 % 1023 hPa 0,0 l/m 32,2 km/h (5 Bft) W45 260 0 min 0 min 6,4 C -4,4 C
07.11.2012 14:00 6,8 C 97 % 1023 hPa 0,0 l/m 33,5 km/h (5 Bft) W45 260 0 min 0 min 6,4 C -4,6 C
07.11.2012 14:15 6,8 C 97 % 1023 hPa 0,0 l/m 24,6 km/h (4 Bft) W45 260 0 min 0 min 6,4 C -2,4 C
07.11.2012 14:30 6,8 C 97 % 1023 hPa 0,0 l/m 32,4 km/h (5 Bft) W45 270 0 min 0 min 6,4 C -4,4 C
07.11.2012 14:45 6,5 C 97 % 1023 hPa 0,0 l/m 30,3 km/h (5 Bft) W-SW45 250 0 min 0 min 6,1 C -4,3 C
07.11.2012 15:00 6,4 C 97 % 1023 hPa 0,0 l/m 26,8 km/h (4 Bft) W45 260 0 min 0 min 6,0 C -3,6 C
07.11.2012 15:15 6,2 C 97 % 1023 hPa 0,0 l/m 24,9 km/h (4 Bft) W67.5 270 0 min 0 min 5,8 C -3,3 C
07.11.2012 15:30 6,0 C 97 % 1023 hPa 0,0 l/m 32,0 km/h (5 Bft) W22.5 260 0 min 0 min 5,6 C -5,4 C
07.11.2012 15:45 6,0 C 97 % 1023 hPa 0,0 l/m 33,6 km/h (5 Bft) W-SW45 255 0 min 0 min 5,6 C -5,8 C
07.11.2012 16:00 6,0 C 97 % 1023 hPa 0,0 l/m 24,5 km/h (4 Bft) W-SW22.5 255 0 min 0 min 5,6 C -3,4 C
07.11.2012 16:15 5,9 C 97 % 1023 hPa 0,0 l/m 26,6 km/h (4 Bft) W45 260 0 min 0 min 5,5 C -4,2 C
07.11.2012 16:30 5,9 C 96 % 1023 hPa 0,0 l/m 28,4 km/h (4 Bft) W-SW45 245 0 min 0 min 5,3 C -4,7 C
07.11.2012 16:45 5,7 C 97 % 1023 hPa 0,0 l/m 31,6 km/h (5 Bft) W-SW45 250 0 min 0 min 5,3 C -5,8 C
07.11.2012 17:00 5,7 C 97 % 1023 hPa 0,0 l/m 29,0 km/h (5 Bft) W-SW45 245 0 min 0 min 5,3 C -5,1 C
07.11.2012 17:15 5,6 C 96 % 1023 hPa 0,0 l/m 27,5 km/h (4 Bft) W-SW22.5 245 0 min 0 min 5,0 C -4,9 C
07.11.2012 17:30 5,4 C 96 % 1023 hPa 0,0 l/m 23,5 km/h (4 Bft) W-SW45 245 0 min 0 min 4,8 C -3,9 C
07.11.2012 17:45 5,3 C 97 % 1023 hPa 0,0 l/m 21,5 km/h (4 Bft) W-SW45 240 0 min 0 min 4,9 C -3,4 C
07.11.2012 18:00 5,2 C 97 % 1023 hPa 0,0 l/m 26,9 km/h (4 Bft) W-SW22.5 255 0 min 0 min 4,8 C -5,2 C
07.11.2012 18:15 5,2 C 97 % 1023 hPa 0,0 l/m 27,7 km/h (4 Bft) W22.5 260 0 min 0 min 4,8 C -5,5 C
07.11.2012 18:30 5,1 C 97 % 1023 hPa 0,0 l/m 31,2 km/h (5 Bft) W-SW22.5 255 0 min 0 min 4,7 C -6,5 C
07.11.2012 18:45 5,1 C 97 % 1023 hPa 0,0 l/m 25,8 km/h (4 Bft) W-SW22.5 255 0 min 0 min 4,7 C -5,1 C
07.11.2012 19:00 5,2 C 97 % 1023 hPa 0,0 l/m 29,1 km/h (5 Bft) W-SW45 250 0 min 0 min 4,8 C -5,9 C
07.11.2012 19:15 5,2 C 97 % 1023 hPa 0,0 l/m 31,8 km/h (5 Bft) W-SW22.5 250 0 min 0 min 4,8 C -6,5 C
07.11.2012 19:30 5,2 C 97 % 1023 hPa 0,0 l/m 25,4 km/h (4 Bft) W-SW45 255 0 min 0 min 4,8 C -4,8 C
07.11.2012 19:45 5,2 C 97 % 1023 hPa 0,0 l/m 23,8 km/h (4 Bft) W-SW45 245 0 min 0 min 4,8 C -4,3 C
07.11.2012 20:00 5,2 C 97 % 1023 hPa 0,0 l/m 24,3 km/h (4 Bft) W-SW22.5 245 0 min 0 min 4,8 C -4,4 C
07.11.2012 20:15 5,2 C 97 % 1023 hPa 0,0 l/m 22,6 km/h (4 Bft) W-SW45 245 0 min 0 min 4,8 C -3,9 C
07.11.2012 20:30 5,2 C 97 % 1023 hPa 0,0 l/m 26,1 km/h (4 Bft) W-SW45 245 0 min 0 min 4,8 C -5,0 C
07.11.2012 20:46 5,2 C 97 % 1023 hPa 0,0 l/m 24,6 km/h (4 Bft) W22.5 260 0 min 0 min 4,8 C -4,5 C
07.11.2012 21:00 5,2 C 97 % 1023 hPa 0,0 l/m 21,2 km/h (4 Bft) W-SW45 255 0 min 0 min 4,8 C -3,4 C
07.11.2012 21:15 5,2 C 97 % 1023 hPa 0,0 l/m 22,4 km/h (4 Bft) W-SW22.5 250 0 min 0 min 4,8 C -3,8 C
07.11.2012 21:30 5,2 C 97 % 1023 hPa 0,0 l/m 23,7 km/h (4 Bft) W-SW45 250 0 min 0 min 4,8 C -4,3 C
07.11.2012 21:45 5,2 C 97 % 1023 hPa 0,0 l/m 22,8 km/h (4 Bft) W-SW22.5 250 0 min 0 min 4,8 C -3,9 C
07.11.2012 22:00 5,2 C 97 % 1023 hPa 0,0 l/m 23,9 km/h (4 Bft) W-SW22.5 250 0 min 0 min 4,8 C -4,3 C
07.11.2012 22:16 5,2 C 97 % 1023 hPa 0,0 l/m 26,8 km/h (4 Bft) W-SW67.5 250 0 min 0 min 4,8 C -5,2 C
07.11.2012 22:30 5,2 C 97 % 1022 hPa 0,0 l/m 33,3 km/h (5 Bft) W-SW45 250 0 min 0 min 4,8 C -6,9 C
07.11.2012 22:45 5,2 C 96 % 1022 hPa 0,0 l/m 25,3 km/h (4 Bft) W-SW45 245 0 min 0 min 4,6 C -4,8 C
07.11.2012 23:00 5,2 C 96 % 1022 hPa 0,0 l/m 29,6 km/h (5 Bft) W-SW22.5 255 0 min 0 min 4,6 C -6,0 C
07.11.2012 23:15 5,2 C 96 % 1022 hPa 0,0 l/m 26,1 km/h (4 Bft) W-SW45 250 0 min 0 min 4,6 C -5,0 C
07.11.2012 23:30 5,2 C 96 % 1022 hPa 0,0 l/m 30,3 km/h (5 Bft) W-SW45 250 0 min 0 min 4,6 C -6,2 C
07.11.2012 23:46 5,1 C 95 % 1022 hPa 0,0 l/m 31,0 km/h (5 Bft) W45 260 0 min 0 min 4,4 C -6,5 C
_ Min-Zeit 00:09 00:09 00:09 - 08:30 - - - - 00:09 00:09
Minimum _ 2,7 C 94 % 1018 hPa - 16,3 km/h (3 Bft) - - - - 1,8 C -11,2 C
_ Max-Zeit 12:01 09:15 11:00 00:24 00:09 - - 00:09 08:00 12:01 12:01
Maximum _ 7,2 C 99 % 1023 hPa 0,3 l/m 36,2 km/h
W-SW (5 Bft)
- - 0 min 21 min 6,9 C -0,6 C
Durchschnitt _ 5,1 C 97 % 1022 hPa #2,4 l/m 25,5 km/h (4 Bft) W-SW - #0 min. #2:06 h 4,7 C -4,8 C